createdAt,value
2023-06-07T00:01:35.820Z,7.2
2023-06-07T00:04:35.934Z,7.3
2023-06-07T00:07:35.832Z,6.4
2023-06-07T00:10:35.864Z,6.6
2023-06-07T00:13:35.848Z,6.5
2023-06-07T00:16:35.852Z,6
2023-06-07T00:19:35.862Z,7.5
2023-06-07T00:22:35.874Z,7.6
2023-06-07T00:25:35.907Z,7.4
2023-06-07T00:28:35.882Z,7.3
2023-06-07T00:31:35.931Z,7
2023-06-07T00:34:35.905Z,7.4
2023-06-07T00:37:35.900Z,7.1
2023-06-07T00:40:35.945Z,6.3
2023-06-07T00:43:35.922Z,6.8
2023-06-07T00:46:35.935Z,7.8
2023-06-07T00:49:35.942Z,6.1
2023-06-07T00:52:35.950Z,7.3
2023-06-07T00:55:35.964Z,6.8
2023-06-07T00:58:35.967Z,7.3
2023-06-07T01:01:35.980Z,8.2
2023-06-07T01:04:35.969Z,7.6
2023-06-07T01:07:35.988Z,7.3
2023-06-07T01:10:36.053Z,8.3
2023-06-07T01:13:36.066Z,9.4
2023-06-07T01:16:36.003Z,6.6
2023-06-07T01:19:36.000Z,8.4
2023-06-07T01:22:36.013Z,6.8
2023-06-07T01:25:36.032Z,7.7
2023-06-07T01:28:36.032Z,7.9
2023-06-07T01:31:36.033Z,5.9
2023-06-07T01:34:36.029Z,7.3
2023-06-07T01:37:36.032Z,6.8
2023-06-07T01:40:36.064Z,8.6
2023-06-07T01:43:36.033Z,9.7
2023-06-07T01:46:36.058Z,6.5
2023-06-07T01:49:36.046Z,8
2023-06-07T01:52:36.057Z,7.4
2023-06-07T01:55:36.056Z,7.8
2023-06-07T01:58:36.065Z,8.5
2023-06-07T02:01:36.064Z,8.2
2023-06-07T02:04:36.068Z,7.8
2023-06-07T02:07:36.070Z,8
2023-06-07T02:10:36.080Z,8
2023-06-07T02:13:36.115Z,6.7
2023-06-07T02:16:36.116Z,7.4
2023-06-07T02:19:36.103Z,8.2
2023-06-07T02:22:36.106Z,6.5
2023-06-07T02:25:36.109Z,7.9
2023-06-07T02:28:36.131Z,6.5
2023-06-07T02:31:36.126Z,7
2023-06-07T02:34:36.132Z,7.2
2023-06-07T02:37:36.137Z,6.2
2023-06-07T02:40:36.132Z,7.4
2023-06-07T02:43:36.145Z,7.9
2023-06-07T02:46:36.171Z,7.8
2023-06-07T02:49:36.143Z,7.1
2023-06-07T02:52:36.162Z,7.8
2023-06-07T02:55:36.158Z,7.3
2023-06-07T02:58:36.150Z,8.5
2023-06-07T03:01:36.189Z,8.3
2023-06-07T03:04:36.190Z,9.2
2023-06-07T03:07:36.175Z,7.3
2023-06-07T03:10:36.176Z,8
2023-06-07T03:13:36.175Z,9.5
2023-06-07T03:16:36.202Z,7.6
2023-06-07T03:19:36.190Z,8.5
2023-06-07T03:22:36.198Z,8.6
2023-06-07T03:25:36.225Z,8.4
2023-06-07T03:28:36.202Z,9.3
2023-06-07T03:31:36.206Z,9.1
2023-06-07T03:34:36.218Z,9.2
2023-06-07T03:37:36.213Z,9.5
2023-06-07T03:40:36.217Z,8.8
2023-06-07T03:43:36.230Z,9.6
2023-06-07T03:46:36.234Z,8.5
2023-06-07T03:49:36.232Z,9.2
2023-06-07T03:52:36.238Z,9.3
2023-06-07T03:55:36.245Z,10.3
2023-06-07T03:58:36.246Z,9.3
2023-06-07T04:01:36.250Z,9.1
2023-06-07T04:04:36.304Z,8.7
2023-06-07T04:07:36.266Z,9.9
2023-06-07T04:10:36.262Z,8.6
2023-06-07T04:13:36.274Z,8.6
2023-06-07T04:16:36.273Z,7.7
2023-06-07T04:19:36.382Z,8.1
2023-06-07T04:22:36.280Z,10.5
2023-06-07T04:25:36.284Z,8.6
2023-06-07T04:28:36.300Z,8.7
2023-06-07T04:31:36.334Z,10.3
2023-06-07T04:34:36.294Z,9.4
2023-06-07T04:37:36.300Z,9.5
2023-06-07T04:40:36.307Z,9.3
2023-06-07T04:43:36.312Z,8.3
2023-06-07T04:46:36.340Z,8.2
2023-06-07T04:49:36.315Z,10.5
2023-06-07T04:52:36.323Z,8.6
2023-06-07T04:55:36.328Z,8.3
2023-06-07T04:58:36.327Z,9.4
2023-06-07T05:01:36.376Z,8.5
2023-06-07T05:04:36.340Z,8.6
2023-06-07T05:07:36.342Z,9
2023-06-07T05:10:36.354Z,8.6
2023-06-07T05:13:36.357Z,8.5
2023-06-07T05:16:36.388Z,8.7
2023-06-07T05:19:36.370Z,10.3
2023-06-07T05:22:36.378Z,8.9
2023-06-07T05:25:36.387Z,7.9
2023-06-07T05:28:36.377Z,7.2
2023-06-07T05:31:36.437Z,8.9
2023-06-07T05:34:36.379Z,10
2023-06-07T05:37:36.399Z,7.5
2023-06-07T05:40:36.404Z,9
2023-06-07T05:43:36.395Z,8.4
2023-06-07T05:46:36.432Z,9.1
2023-06-07T05:49:36.410Z,7.8
2023-06-07T05:52:36.401Z,7.5
2023-06-07T05:55:36.413Z,8.5
2023-06-07T05:58:36.424Z,7.4
2023-06-07T06:01:36.540Z,9.4
2023-06-07T06:04:36.450Z,8.3
2023-06-07T06:07:36.429Z,7.7
2023-06-07T06:10:36.477Z,7.3
2023-06-07T06:13:36.440Z,8
2023-06-07T06:16:36.483Z,7.9
2023-06-07T06:19:36.446Z,9.6
2023-06-07T06:22:36.465Z,8.3
2023-06-07T06:25:36.459Z,7.5
2023-06-07T06:28:36.486Z,7.6
2023-06-07T06:31:36.559Z,8.9
2023-06-07T06:34:36.468Z,7.5
2023-06-07T06:37:36.480Z,7.5
2023-06-07T06:40:36.479Z,8.4
2023-06-07T06:43:36.491Z,9
2023-06-07T06:46:36.581Z,9.8
2023-06-07T06:49:36.549Z,8.7
2023-06-07T06:52:36.559Z,7.9
2023-06-07T06:55:36.591Z,8.1
2023-06-07T06:58:36.606Z,7.8
2023-06-07T07:01:36.608Z,9.5
2023-06-07T07:04:36.642Z,11
2023-06-07T07:07:36.593Z,8.4
2023-06-07T07:10:36.598Z,8.9
2023-06-07T07:13:36.599Z,11
2023-06-07T07:16:38.769Z,10.4
2023-06-07T07:19:36.601Z,11.4
2023-06-07T07:22:36.600Z,7.7
2023-06-07T07:25:36.616Z,8.6
2023-06-07T07:28:36.602Z,9.2
2023-06-07T07:31:36.610Z,9.8
2023-06-07T07:34:38.055Z,7.4
2023-06-07T07:37:36.610Z,7.3
2023-06-07T07:40:36.612Z,6.9
2023-06-07T07:43:38.167Z,8.1
2023-06-07T07:46:36.657Z,7.6
2023-06-07T07:49:36.896Z,7.5
2023-06-07T07:52:36.618Z,8.1
2023-06-07T07:55:36.617Z,7.2
2023-06-07T07:58:36.624Z,8.4
2023-06-07T08:01:36.622Z,7.6
2023-06-07T08:04:36.636Z,9.4
2023-06-07T08:07:36.630Z,8.1
2023-06-07T08:10:36.637Z,8.6
2023-06-07T08:13:36.640Z,8
2023-06-07T08:16:36.642Z,7.1
2023-06-07T08:19:36.643Z,6.8
2023-06-07T08:22:36.657Z,8
2023-06-07T08:25:36.638Z,7.8
2023-06-07T08:28:36.665Z,6.9
2023-06-07T08:31:36.682Z,6.3
2023-06-07T08:34:36.664Z,6.8
2023-06-07T08:37:36.670Z,6.6
2023-06-07T08:40:36.674Z,6.8
2023-06-07T08:43:36.680Z,6.6
2023-06-07T08:46:36.743Z,7.5
2023-06-07T08:49:36.668Z,5.9
2023-06-07T08:52:36.678Z,6.6
2023-06-07T08:55:36.670Z,6.4
2023-06-07T08:58:36.675Z,7.2
2023-06-07T09:01:36.707Z,5.9
2023-06-07T09:04:36.784Z,5.3
2023-06-07T09:07:36.714Z,6.1
2023-06-07T09:10:36.690Z,6.4
2023-06-07T09:13:36.757Z,5
2023-06-07T09:16:36.857Z,6.2
2023-06-07T09:19:36.702Z,5.8
2023-06-07T09:22:36.715Z,5.7
2023-06-07T09:25:36.731Z,6.1
2023-06-07T09:28:36.740Z,5.5
2023-06-07T09:31:36.761Z,5.9
2023-06-07T09:34:36.785Z,6
2023-06-07T09:37:36.798Z,6.9
2023-06-07T09:40:36.782Z,6.1
2023-06-07T09:43:36.735Z,5.9
2023-06-07T09:46:36.849Z,4.2
2023-06-07T09:49:37.106Z,5.2
2023-06-07T09:52:36.822Z,5.3
2023-06-07T09:55:36.845Z,4.5
2023-06-07T09:58:36.813Z,4.6
2023-06-07T10:01:36.829Z,4.7
2023-06-07T10:04:36.902Z,4.9
2023-06-07T10:07:36.862Z,4.8
2023-06-07T10:10:36.915Z,6.6
2023-06-07T10:13:36.976Z,6.1
2023-06-07T10:16:36.942Z,4.6
2023-06-07T10:19:36.792Z,5.8
2023-06-07T10:22:36.805Z,5.3
2023-06-07T10:25:36.839Z,4.9
2023-06-07T10:28:36.805Z,6.8
2023-06-07T10:31:36.838Z,4.8
2023-06-07T10:34:36.811Z,4.9
2023-06-07T10:37:36.821Z,5.3
2023-06-07T10:40:36.828Z,6.6
2023-06-07T10:43:36.833Z,6.6
2023-06-07T10:46:36.924Z,7.6
2023-06-07T10:49:36.853Z,6
2023-06-07T10:52:36.835Z,6
2023-06-07T10:55:36.855Z,5.8
2023-06-07T10:58:36.860Z,5.3
2023-06-07T11:01:36.965Z,7.5
2023-06-07T11:04:36.966Z,6.3
2023-06-07T11:07:36.886Z,5.8
2023-06-07T11:10:37.010Z,6.7
2023-06-07T11:13:36.892Z,6.7
2023-06-07T11:16:36.983Z,5.8
2023-06-07T11:19:36.916Z,5.3
2023-06-07T11:22:36.928Z,5.1
2023-06-07T11:25:36.963Z,6.1
2023-06-07T11:28:36.956Z,6.5
2023-06-07T11:31:37.030Z,5.9
2023-06-07T11:34:36.987Z,6.4
2023-06-07T11:37:37.242Z,5.7
2023-06-07T11:40:36.972Z,5.6
2023-06-07T11:43:36.969Z,5.9
2023-06-07T11:46:37.020Z,4.6
2023-06-07T11:49:36.990Z,5.2
2023-06-07T11:52:36.984Z,6
2023-06-07T11:55:36.993Z,6
2023-06-07T11:58:37.001Z,5.6
2023-06-07T12:01:36.989Z,8
2023-06-07T12:04:37.016Z,6.7
2023-06-07T12:07:37.017Z,6.5
2023-06-07T12:10:37.020Z,5.5
2023-06-07T12:13:37.015Z,6.3
2023-06-07T12:16:37.082Z,5.9
2023-06-07T12:19:37.037Z,5.7
2023-06-07T12:22:37.031Z,5.3
2023-06-07T12:25:37.074Z,5.9
2023-06-07T12:28:37.047Z,5.6
2023-06-07T12:31:37.082Z,6.4
2023-06-07T12:34:37.072Z,8
2023-06-07T12:37:37.081Z,8.6
2023-06-07T12:40:37.096Z,6.1
2023-06-07T12:43:37.080Z,7
2023-06-07T12:46:37.143Z,5.7
2023-06-07T12:49:37.098Z,7.3
2023-06-07T12:52:37.097Z,6.5
2023-06-07T12:55:37.111Z,7
2023-06-07T12:58:37.130Z,6.5
2023-06-07T13:01:37.187Z,6.7
2023-06-07T13:04:37.118Z,7.4
2023-06-07T13:07:37.109Z,5.8
2023-06-07T13:10:37.142Z,6.8
2023-06-07T13:13:37.140Z,6.7
2023-06-07T13:16:37.175Z,8.3
2023-06-07T13:19:37.139Z,6
2023-06-07T13:22:37.175Z,7.1
2023-06-07T13:25:37.145Z,5.9
2023-06-07T13:28:37.165Z,6.4
2023-06-07T13:31:37.238Z,6.8
2023-06-07T13:34:37.170Z,7.1
2023-06-07T13:37:37.177Z,5.6
2023-06-07T13:40:37.183Z,5.6
2023-06-07T13:43:51.647Z,7.5
2023-06-07T13:46:37.219Z,6
2023-06-07T13:49:37.296Z,5.9
2023-06-07T13:52:37.188Z,6
2023-06-07T13:55:37.209Z,5.6
2023-06-07T13:58:37.209Z,6.1
2023-06-07T14:01:37.323Z,6.2
2023-06-07T14:04:37.335Z,6.7
2023-06-07T14:07:37.227Z,5.4
2023-06-07T14:10:37.272Z,6.2
2023-06-07T14:13:37.223Z,6.6
2023-06-07T14:16:37.252Z,7.7
2023-06-07T14:19:37.247Z,5.8
2023-06-07T14:22:37.252Z,6.9
2023-06-07T14:25:37.246Z,7
2023-06-07T14:28:37.298Z,6.4
2023-06-07T14:31:37.257Z,8.9
2023-06-07T14:34:37.267Z,7.5
2023-06-07T14:37:37.266Z,7.8
2023-06-07T14:40:37.280Z,6.4
2023-06-07T14:43:37.280Z,6.4
2023-06-07T14:46:37.299Z,8.4
2023-06-07T14:49:37.309Z,8.7
2023-06-07T14:52:37.303Z,7.2
2023-06-07T14:55:37.305Z,7.3
2023-06-07T14:58:37.308Z,7.3
2023-06-07T15:01:37.358Z,6.4
2023-06-07T15:04:37.320Z,9.1
2023-06-07T15:07:37.327Z,5.9
2023-06-07T15:10:37.342Z,6.4
2023-06-07T15:13:37.339Z,8.3
2023-06-07T15:16:37.428Z,6.8
2023-06-07T15:19:37.341Z,6.6
2023-06-07T15:22:37.352Z,6.1
2023-06-07T15:25:37.365Z,6.4
2023-06-07T15:28:37.356Z,7.9
2023-06-07T15:31:37.419Z,7.9
2023-06-07T15:34:37.376Z,5.7
2023-06-07T15:37:37.384Z,6.6
2023-06-07T15:40:37.386Z,5.5
2023-06-07T15:43:37.419Z,8
2023-06-07T15:46:39.213Z,6.2
2023-06-07T15:49:37.394Z,6.8
2023-06-07T15:52:37.409Z,7.8
2023-06-07T15:55:37.412Z,7.3
2023-06-07T15:58:37.396Z,5.8
2023-06-07T16:01:37.589Z,7
2023-06-07T16:04:37.423Z,6.7
2023-06-07T16:07:37.417Z,5.2
2023-06-07T16:10:37.420Z,7.1
2023-06-07T16:13:37.424Z,6.5
2023-06-07T16:16:37.583Z,5.5
2023-06-07T16:19:37.422Z,6.6
2023-06-07T16:22:37.433Z,5.9
2023-06-07T16:25:37.453Z,6
2023-06-07T16:28:37.446Z,5.8
2023-06-07T16:31:37.469Z,6
2023-06-07T16:34:37.463Z,6.7
2023-06-07T16:37:37.470Z,7.2
2023-06-07T16:40:37.467Z,6.8
2023-06-07T16:43:37.483Z,7.9
2023-06-07T16:46:37.493Z,7.9
2023-06-07T16:49:37.481Z,10.5
2023-06-07T16:52:37.493Z,6.4
2023-06-07T16:55:37.492Z,6.8
2023-06-07T16:58:37.496Z,8
2023-06-07T17:01:37.517Z,8.5
2023-06-07T17:04:37.505Z,6.7
2023-06-07T17:07:37.507Z,7.3
2023-06-07T17:10:37.528Z,7.7
2023-06-07T17:13:37.523Z,6
2023-06-07T17:16:37.559Z,8.8
2023-06-07T17:19:37.531Z,8.2
2023-06-07T17:22:37.552Z,7.4
2023-06-07T17:25:37.588Z,7.5
2023-06-07T17:28:37.547Z,9.2
2023-06-07T17:31:37.588Z,8.4
2023-06-07T17:34:37.564Z,8
2023-06-07T17:37:37.566Z,8.9
2023-06-07T17:40:37.561Z,7.8
2023-06-07T17:43:37.572Z,7.6
2023-06-07T17:46:37.631Z,7.2
2023-06-07T17:49:37.578Z,7.3
2023-06-07T17:52:37.583Z,6.7
2023-06-07T17:55:37.590Z,6.6
2023-06-07T17:58:37.590Z,11.8
2023-06-07T18:01:37.628Z,7.7
2023-06-07T18:04:37.595Z,8.1
2023-06-07T18:07:37.612Z,8
2023-06-07T18:10:37.606Z,7.6
2023-06-07T18:13:37.629Z,7.2
2023-06-07T18:16:37.716Z,7.6
2023-06-07T18:19:37.657Z,7.7
2023-06-07T18:22:37.634Z,10.1
2023-06-07T18:25:37.636Z,9.8
2023-06-07T18:28:37.641Z,8.3
2023-06-07T18:31:37.664Z,9.9
2023-06-07T18:34:37.659Z,8.2
2023-06-07T18:37:37.661Z,9.8
2023-06-07T18:40:37.667Z,12.4
2023-06-07T18:43:37.665Z,9.3
2023-06-07T18:46:37.705Z,9.8
2023-06-07T18:49:37.674Z,9.6
2023-06-07T18:52:37.682Z,8.4
2023-06-07T18:55:37.679Z,8.6
2023-06-07T18:58:37.683Z,9
2023-06-07T19:01:50.638Z,11.2
2023-06-07T19:04:37.869Z,8.8
2023-06-07T19:07:37.692Z,7.7
2023-06-07T19:10:37.702Z,11.1
2023-06-07T19:13:37.710Z,8.6
2023-06-07T19:16:37.714Z,9.8
2023-06-07T19:19:37.714Z,11.7
2023-06-07T19:22:37.718Z,8.2
2023-06-07T19:25:37.733Z,9.6
2023-06-07T19:28:37.727Z,9.4
2023-06-07T19:31:37.780Z,10.3
2023-06-07T19:34:37.759Z,8.9
2023-06-07T19:37:37.749Z,9.9
2023-06-07T19:40:37.750Z,13.2
2023-06-07T19:43:37.756Z,10.2
2023-06-07T19:46:37.797Z,8.7
2023-06-07T19:49:37.767Z,9
2023-06-07T19:52:37.772Z,10.7
2023-06-07T19:55:37.767Z,10.3
2023-06-07T19:58:37.778Z,13.1
2023-06-07T20:01:37.794Z,11.7
2023-06-07T20:04:37.777Z,10.2
2023-06-07T20:07:37.785Z,10.4
2023-06-07T20:10:37.793Z,9.9
2023-06-07T20:13:37.786Z,9.5
2023-06-07T20:16:37.858Z,9.4
2023-06-07T20:19:37.820Z,10.8
2023-06-07T20:22:37.817Z,12
2023-06-07T20:25:37.807Z,10.7
2023-06-07T20:28:37.806Z,10.2
2023-06-07T20:31:37.849Z,11.8
2023-06-07T20:34:37.832Z,10.6
2023-06-07T20:37:37.831Z,11
2023-06-07T20:40:37.831Z,10.9
2023-06-07T20:43:37.837Z,12.3
2023-06-07T20:46:37.906Z,13.5
2023-06-07T20:49:37.838Z,12
2023-06-07T20:52:37.844Z,11.7
2023-06-07T20:55:37.852Z,9.5
2023-06-07T20:58:37.848Z,10.7
2023-06-07T21:01:37.894Z,14.4
2023-06-07T21:04:37.850Z,9.9
2023-06-07T21:07:37.864Z,10.4
2023-06-07T21:10:37.871Z,11.1
2023-06-07T21:13:37.857Z,10
2023-06-07T21:16:37.912Z,10.1
2023-06-07T21:19:37.873Z,10.3
2023-06-07T21:22:37.873Z,10.1
2023-06-07T21:25:37.874Z,10.4
2023-06-07T21:28:37.884Z,10.1
2023-06-07T21:31:37.899Z,10.9
2023-06-07T21:34:37.879Z,10.8
2023-06-07T21:37:37.894Z,10
2023-06-07T21:40:37.876Z,9
2023-06-07T21:43:37.889Z,9.3
2023-06-07T21:46:37.946Z,8.4
2023-06-07T21:49:37.887Z,10.5
2023-06-07T21:52:37.893Z,10.7
2023-06-07T21:55:37.897Z,9.2
2023-06-07T21:58:37.900Z,10.3
2023-06-07T22:01:37.941Z,8.9
2023-06-07T22:04:38.028Z,8.2
2023-06-07T22:07:37.957Z,7.2
2023-06-07T22:10:37.968Z,9.5
2023-06-07T22:13:38.206Z,9.1
2023-06-07T22:16:38.010Z,9.3
2023-06-07T22:19:37.993Z,10.1
2023-06-07T22:22:38.001Z,9.1
2023-06-07T22:25:41.264Z,7.9
2023-06-07T22:28:38.028Z,8.1
2023-06-07T22:31:38.097Z,9
2023-06-07T22:34:38.030Z,7.6
2023-06-07T22:37:38.034Z,9.1
2023-06-07T22:40:38.046Z,8.4
2023-06-07T22:43:38.036Z,7.8
2023-06-07T22:46:38.089Z,7.7
2023-06-07T22:49:38.050Z,6.9
2023-06-07T22:52:38.060Z,8.6
2023-06-07T22:55:38.074Z,8.5
2023-06-07T22:58:38.070Z,9.1
2023-06-07T23:01:38.116Z,7.5
2023-06-07T23:04:38.080Z,10.1
2023-06-07T23:07:38.089Z,7.4
2023-06-07T23:10:38.105Z,7.2
2023-06-07T23:13:38.133Z,8.7
2023-06-07T23:16:38.192Z,8.4
2023-06-07T23:19:38.102Z,7.9
2023-06-07T23:22:38.116Z,8.1
2023-06-07T23:25:38.127Z,8.1
2023-06-07T23:28:38.117Z,8.9
2023-06-07T23:31:38.139Z,8.5
2023-06-07T23:34:38.129Z,8
2023-06-07T23:37:38.120Z,8.1
2023-06-07T23:40:38.141Z,8.9
2023-06-07T23:43:38.169Z,8
2023-06-07T23:46:38.192Z,8
2023-06-07T23:49:38.153Z,8.7
2023-06-07T23:52:38.159Z,9.5
2023-06-07T23:55:38.158Z,10.1
2023-06-07T23:58:38.171Z,8.8
